Ferry Kyoto2 — JI3701 — position and weather

sailwx.info

Track history (hours):
 
Tides and Currents Weather Stations Pressure Air Temp Water Temp Dewpoint Dewpoint Depression Visibility Wind Speed Wind Dir Waves Ship Positions

Ferry Kyoto2

Last reported at 2014-Jul-24 12:33 UTC. Time now 2014-Jul-24 14:39 UTC.
Position N 34°35' E 134°51'.

Length 167 m; draft 6 m.

Type: Passenger vessel. MMSI: 431301641.

Date/timePositionNaut miles runAvg speedWind from/ knotsBaromVisibWave heightAir tempDewpointWater temp
2014-Jul-24 12:33N 34°35' E 134°51'2121.1
2014-Jul-24 11:33N 34°36' E 135°17'7 7.0
2014-Jul-24 10:30N 34°37' E 135°26'0 0.0
2014-Jul-24 09:30N 34°37' E 135°26'0 0.0
2014-Jul-24 08:24N 34°37' E 135°26'0 0.0
2014-Jul-24 07:30N 34°37' E 135°26'0 0.0
2014-Jul-24 06:30N 34°37' E 135°26'0 0.0
2014-Jul-24 05:24N 34°37' E 135°26'0 0.0
2014-Jul-24 04:30N 34°37' E 135°26'0 0.0
2014-Jul-24 03:30N 34°37' E 135°26'0 0.0
2014-Jul-24 02:30N 34°37' E 135°26'0 0.0
2014-Jul-24 01:30N 34°37' E 135°26'0 0.0
2014-Jul-24 00:30N 34°37' E 135°26'0 0.0
2014-Jul-23 23:31N 34°37' E 135°26'1212.2
2014-Jul-23 22:33N 34°36' E 135°12'1717.2
2014-Jul-23 21:34N 34°34' E 134°51'9918.1
2014-Jul-23 16:05N 34°09' E 132°55'1121.0
2014-Jul-23 15:33N 34°01' E 132°46'2521.1
2014-Jul-23 14:23N 33°45' E 132°23'21 1.1
2014-Jul-22 18:33N 33°58' E 132°43'11018.3
2014-Jul-22 12:33N 34°34' E 134°49'2020.6
2014-Jul-22 11:33N 34°36' E 135°14'1010.0
2014-Jul-22 10:33N 34°37' E 135°26'0 0.0
2014-Jul-22 09:33N 34°37' E 135°26'0 0.0
2014-Jul-22 08:33N 34°37' E 135°26'0 0.0
2014-Jul-22 07:27N 34°37' E 135°26'0 0.0
2014-Jul-22 06:33N 34°37' E 135°26'0 0.0
2014-Jul-22 05:30N 34°37' E 135°26'0 0.0
2014-Jul-22 04:30N 34°37' E 135°26'0 0.0
2014-Jul-22 03:30N 34°37' E 135°26'0 0.0
2014-Jul-22 02:18N 34°37' E 135°26'0 0.0
2014-Jul-22 01:30N 34°37' E 135°26'0 0.0
2014-Jul-22 00:30N 34°37' E 135°26'0 0.0
2014-Jul-21 23:33N 34°37' E 135°26'1312.7
2014-Jul-21 22:33N 34°35' E 135°11'1717.0
2014-Jul-21 21:34N 34°33' E 134°50'3 0.1
2014-Jul-20 12:33N 34°33' E 134°47'2020.3
2014-Jul-20 11:33N 34°36' E 135°12'1211.2
2014-Jul-20 10:30N 34°37' E 135°26'0 0.0
2014-Jul-20 09:30N 34°37' E 135°26'0 0.0
2014-Jul-20 08:30N 34°37' E 135°26'0 0.0
2014-Jul-20 07:30N 34°37' E 135°26'0 0.0
2014-Jul-20 06:30N 34°37' E 135°26'0 0.0
2014-Jul-20 05:30N 34°37' E 135°26'0 0.0
2014-Jul-20 04:18N 34°37' E 135°26'0 0.0
2014-Jul-20 03:24N 34°37' E 135°26'0 0.0
2014-Jul-20 02:24N 34°37' E 135°26'0 0.0
2014-Jul-20 01:30N 34°37' E 135°26'0 0.0
2014-Jul-20 00:30N 34°37' E 135°26'0 0.0
2014-Jul-19 23:30N 34°37' E 135°26'9 9.5
2014-Jul-19 22:33N 34°35' E 135°15'1817.7
2014-Jul-19 21:33N 34°35' E 134°54'3 0.1
2014-Jul-18 12:28N 34°35' E 134°50'1920.7
2014-Jul-18 11:33N 34°36' E 135°13'11 9.1
2014-Jul-18 10:22N 34°37' E 135°26'0 0.0
2014-Jul-18 09:28N 34°37' E 135°26'0 0.0
2014-Jul-18 08:16N 34°37' E 135°26'0 0.0
2014-Jul-18 07:10N 34°37' E 135°26'0 0.0
2014-Jul-18 06:22N 34°37' E 135°26'0 0.0
2014-Jul-18 05:28N 34°37' E 135°26'0 0.0
2014-Jul-18 04:28N 34°37' E 135°26'0 0.0
2014-Jul-18 03:22N 34°37' E 135°26'0 0.0
2014-Jul-18 02:28N 34°37' E 135°26'0 0.0
2014-Jul-18 01:28N 34°37' E 135°26'0 0.0
2014-Jul-18 00:28N 34°37' E 135°26'0 0.0
2014-Jul-17 23:33N 34°37' E 135°26'9 9.0
2014-Jul-17 22:33N 34°35' E 135°15'1615.6
2014-Jul-17 21:33N 34°36' E 134°57'5 0.2
2014-Jul-16 12:30N 34°35' E 134°51'2021.6
2014-Jul-16 11:33N 34°36' E 135°15'9 8.5
2014-Jul-16 10:31N 34°37' E 135°26'0 0.0
2014-Jul-16 09:13N 34°37' E 135°26'0 0.0
2014-Jul-16 08:31N 34°37' E 135°26'0 0.0
2014-Jul-16 07:31N 34°37' E 135°26'0 0.0
2014-Jul-16 06:13N 34°37' E 135°26'0 0.0
2014-Jul-16 05:07N 34°37' E 135°26'0 0.0
2014-Jul-16 04:31N 34°37' E 135°26'0 0.0
2014-Jul-16 03:31N 34°37' E 135°26'0 0.0
2014-Jul-16 02:33N 34°37' E 135°26'0 0.0
2014-Jul-16 01:33N 34°37' E 135°26'0 0.0
2014-Jul-16 00:33N 34°37' E 135°26'0 0.0
2014-Jul-15 23:33N 34°37' E 135°26'9 8.8
2014-Jul-15 22:33N 34°36' E 135°15'1514.8
2014-Jul-15 21:33N 34°36' E 134°57'  
Track history (hours):
 
Tides and Currents Weather Stations Pressure Air Temp Water Temp Dewpoint Dewpoint Depression Visibility Wind Speed Wind Dir Waves Ship Positions

Ferry Kyoto2

Last reported at 2014-Jul-24 12:33 UTC. Time now 2014-Jul-24 14:39 UTC.
Position N 34°35' E 134°51'.

Length 167 m; draft 6 m.

Type: Passenger vessel. MMSI: 431301641.

Date/timePositionNaut miles runAvg speedWind from/ knotsBaromVisibWave heightAir tempDewpointWater temp
2014-Jul-24 12:33N 34°35' E 134°51'2121.1
2014-Jul-24 11:33N 34°36' E 135°17'7 7.0
2014-Jul-24 10:30N 34°37' E 135°26'0 0.0
2014-Jul-24 09:30N 34°37' E 135°26'0 0.0
2014-Jul-24 08:24N 34°37' E 135°26'0 0.0
2014-Jul-24 07:30N 34°37' E 135°26'0 0.0
2014-Jul-24 06:30N 34°37' E 135°26'0 0.0
2014-Jul-24 05:24N 34°37' E 135°26'0 0.0
2014-Jul-24 04:30N 34°37' E 135°26'0 0.0
2014-Jul-24 03:30N 34°37' E 135°26'0 0.0
2014-Jul-24 02:30N 34°37' E 135°26'0 0.0
2014-Jul-24 01:30N 34°37' E 135°26'0 0.0
2014-Jul-24 00:30N 34°37' E 135°26'0 0.0
2014-Jul-23 23:31N 34°37' E 135°26'1212.2
2014-Jul-23 22:33N 34°36' E 135°12'1717.2
2014-Jul-23 21:34N 34°34' E 134°51'9918.1
2014-Jul-23 16:05N 34°09' E 132°55'1121.0
2014-Jul-23 15:33N 34°01' E 132°46'2521.1
2014-Jul-23 14:23N 33°45' E 132°23'21 1.1
2014-Jul-22 18:33N 33°58' E 132°43'11018.3
2014-Jul-22 12:33N 34°34' E 134°49'2020.6
2014-Jul-22 11:33N 34°36' E 135°14'1010.0
2014-Jul-22 10:33N 34°37' E 135°26'0 0.0
2014-Jul-22 09:33N 34°37' E 135°26'0 0.0
2014-Jul-22 08:33N 34°37' E 135°26'0 0.0
2014-Jul-22 07:27N 34°37' E 135°26'0 0.0
2014-Jul-22 06:33N 34°37' E 135°26'0 0.0
2014-Jul-22 05:30N 34°37' E 135°26'0 0.0
2014-Jul-22 04:30N 34°37' E 135°26'0 0.0
2014-Jul-22 03:30N 34°37' E 135°26'0 0.0
2014-Jul-22 02:18N 34°37' E 135°26'0 0.0
2014-Jul-22 01:30N 34°37' E 135°26'0 0.0
2014-Jul-22 00:30N 34°37' E 135°26'0 0.0
2014-Jul-21 23:33N 34°37' E 135°26'1312.7
2014-Jul-21 22:33N 34°35' E 135°11'1717.0
2014-Jul-21 21:34N 34°33' E 134°50'3 0.1
2014-Jul-20 12:33N 34°33' E 134°47'2020.3
2014-Jul-20 11:33N 34°36' E 135°12'1211.2
2014-Jul-20 10:30N 34°37' E 135°26'0 0.0
2014-Jul-20 09:30N 34°37' E 135°26'0 0.0
2014-Jul-20 08:30N 34°37' E 135°26'0 0.0
2014-Jul-20 07:30N 34°37' E 135°26'0 0.0
2014-Jul-20 06:30N 34°37' E 135°26'0 0.0
2014-Jul-20 05:30N 34°37' E 135°26'0 0.0
2014-Jul-20 04:18N 34°37' E 135°26'0 0.0
2014-Jul-20 03:24N 34°37' E 135°26'0 0.0
2014-Jul-20 02:24N 34°37' E 135°26'0 0.0
2014-Jul-20 01:30N 34°37' E 135°26'0 0.0
2014-Jul-20 00:30N 34°37' E 135°26'0 0.0
2014-Jul-19 23:30N 34°37' E 135°26'9 9.5
2014-Jul-19 22:33N 34°35' E 135°15'1817.7
2014-Jul-19 21:33N 34°35' E 134°54'3 0.1
2014-Jul-18 12:28N 34°35' E 134°50'1920.7
2014-Jul-18 11:33N 34°36' E 135°13'11 9.1
2014-Jul-18 10:22N 34°37' E 135°26'0 0.0
2014-Jul-18 09:28N 34°37' E 135°26'0 0.0
2014-Jul-18 08:16N 34°37' E 135°26'0 0.0
2014-Jul-18 07:10N 34°37' E 135°26'0 0.0
2014-Jul-18 06:22N 34°37' E 135°26'0 0.0
2014-Jul-18 05:28N 34°37' E 135°26'0 0.0
2014-Jul-18 04:28N 34°37' E 135°26'0 0.0
2014-Jul-18 03:22N 34°37' E 135°26'0 0.0
2014-Jul-18 02:28N 34°37' E 135°26'0 0.0
2014-Jul-18 01:28N 34°37' E 135°26'0 0.0
2014-Jul-18 00:28N 34°37' E 135°26'0 0.0
2014-Jul-17 23:33N 34°37' E 135°26'9 9.0
2014-Jul-17 22:33N 34°35' E 135°15'1615.6
2014-Jul-17 21:33N 34°36' E 134°57'5 0.2
2014-Jul-16 12:30N 34°35' E 134°51'2021.6
2014-Jul-16 11:33N 34°36' E 135°15'9 8.5
2014-Jul-16 10:31N 34°37' E 135°26'0 0.0
2014-Jul-16 09:13N 34°37' E 135°26'0 0.0
2014-Jul-16 08:31N 34°37' E 135°26'0 0.0
2014-Jul-16 07:31N 34°37' E 135°26'0 0.0
2014-Jul-16 06:13N 34°37' E 135°26'0 0.0
2014-Jul-16 05:07N 34°37' E 135°26'0 0.0
2014-Jul-16 04:31N 34°37' E 135°26'0 0.0
2014-Jul-16 03:31N 34°37' E 135°26'0 0.0
2014-Jul-16 02:33N 34°37' E 135°26'0 0.0
2014-Jul-16 01:33N 34°37' E 135°26'0 0.0
2014-Jul-16 00:33N 34°37' E 135°26'0 0.0
2014-Jul-15 23:33N 34°37' E 135°26'9 8.8
2014-Jul-15 22:33N 34°36' E 135°15'1514.8
2014-Jul-15 21:33N 34°36' E 134°57'  

Dump ship's entire track history